createdAt,value
2022-10-14T00:00:01.708Z,20.80
2022-10-14T00:02:39.642Z,22.83
2022-10-14T00:05:08.709Z,22.90
2022-10-14T00:07:36.811Z,18.83
2022-10-14T00:10:06.602Z,17.97
2022-10-14T00:12:36.051Z,20.37
2022-10-14T00:15:04.287Z,18.80
2022-10-14T00:17:32.416Z,21.80
2022-10-14T00:20:01.124Z,18.60
2022-10-14T00:22:29.217Z,22.83
2022-10-14T00:24:57.334Z,22.33
2022-10-14T00:27:25.483Z,19.40
2022-10-14T00:29:54.942Z,19.87
2022-10-14T00:32:23.252Z,19.50
2022-10-14T00:34:53.794Z,22.77
2022-10-14T00:37:22.102Z,23.37
2022-10-14T00:39:54.711Z,20.57
2022-10-14T00:42:25.973Z,19.47
2022-10-14T00:45:06.293Z,23.23
2022-10-14T00:47:37.326Z,22.10
2022-10-14T00:50:10.689Z,21.57
2022-10-14T00:52:39.059Z,22.93
2022-10-14T00:55:13.372Z,20.77
2022-10-14T00:57:41.792Z,24.37
2022-10-14T01:00:13.954Z,23.70
2022-10-14T01:02:57.966Z,18.93
2022-10-14T01:05:32.985Z,23.57
2022-10-14T01:08:06.660Z,21.60
2022-10-14T01:10:43.724Z,21.17
2022-10-14T01:13:22.146Z,27.20
2022-10-14T01:15:59.814Z,23.60
2022-10-14T01:18:44.007Z,20.40
2022-10-14T01:21:18.117Z,20.07
2022-10-14T01:24:41.419Z,22.73
2022-10-14T01:27:28.700Z,21.53
2022-10-14T01:30:15.348Z,20.67
2022-10-14T01:33:00.393Z,20.17
2022-10-14T01:35:37.894Z,18.00
2022-10-14T01:38:12.000Z,23.93
2022-10-14T01:40:43.541Z,18.33
2022-10-14T01:43:13.664Z,17.93
2022-10-14T01:45:46.926Z,20.13
2022-10-14T01:48:18.449Z,16.60
2022-10-14T01:50:49.841Z,18.47
2022-10-14T01:53:23.195Z,19.57
2022-10-14T01:55:54.895Z,18.17
2022-10-14T01:58:27.381Z,18.13
2022-10-14T02:00:57.672Z,14.00
2022-10-14T02:03:25.760Z,19.40
2022-10-14T02:05:59.101Z,16.60
2022-10-14T02:08:34.962Z,20.17
2022-10-14T02:11:12.260Z,16.60
2022-10-14T02:13:58.046Z,21.13
2022-10-14T02:16:36.615Z,16.40
2022-10-14T02:19:15.995Z,15.00
2022-10-14T02:21:47.708Z,12.53
2022-10-14T02:24:34.957Z,13.30
2022-10-14T02:27:08.182Z,12.03
2022-10-14T02:29:39.371Z,18.50
2022-10-14T02:32:10.104Z,13.23
2022-10-14T02:34:39.573Z,12.60
2022-10-14T02:37:11.939Z,15.97
2022-10-14T02:39:45.433Z,17.53
2022-10-14T02:42:13.590Z,12.63
2022-10-14T02:44:53.281Z,15.30
2022-10-14T02:47:23.225Z,13.00
2022-10-14T02:49:52.026Z,15.80
2022-10-14T02:52:20.910Z,13.83
2022-10-14T02:54:49.214Z,13.80
2022-10-14T02:57:17.949Z,10.60
2022-10-14T02:59:46.059Z,12.87
2022-10-14T03:02:14.212Z,21.50
2022-10-14T03:04:44.211Z,15.03
2022-10-14T03:07:12.652Z,14.30
2022-10-14T03:09:46.065Z,12.03
2022-10-14T03:12:14.358Z,17.67
2022-10-14T03:14:42.473Z,14.70
2022-10-14T03:17:13.785Z,13.53
2022-10-14T03:19:41.874Z,12.83
2022-10-14T03:22:11.471Z,14.53
2022-10-14T03:24:40.702Z,15.30
2022-10-14T03:27:26.556Z,12.23
2022-10-14T03:30:00.252Z,10.37
2022-10-14T03:32:28.370Z,14.30
2022-10-14T03:35:25.777Z,10.57
2022-10-14T03:37:59.498Z,9.70
2022-10-14T03:40:32.374Z,9.00
2022-10-14T03:43:02.317Z,11.77
2022-10-14T03:45:38.675Z,11.70
2022-10-14T03:48:15.985Z,13.23
2022-10-14T03:50:44.050Z,12.57
2022-10-14T03:53:14.310Z,12.47
2022-10-14T03:55:44.417Z,10.47
2022-10-14T03:58:14.020Z,10.30
2022-10-14T04:00:49.137Z,10.60
2022-10-14T04:03:36.982Z,8.67
2022-10-14T04:06:05.385Z,11.43
2022-10-14T04:08:35.141Z,11.93
2022-10-14T04:11:16.747Z,10.07
2022-10-14T04:13:45.983Z,12.50
2022-10-14T04:16:14.161Z,17.73
2022-10-14T04:19:01.729Z,9.07
2022-10-14T04:21:32.460Z,10.47
2022-10-14T04:24:06.086Z,9.87
2022-10-14T04:26:59.454Z,10.33
2022-10-14T04:29:40.681Z,10.47
2022-10-14T04:32:20.784Z,13.47
2022-10-14T04:34:49.212Z,8.40
2022-10-14T04:37:21.049Z,7.37
2022-10-14T04:40:00.151Z,9.47
2022-10-14T04:42:29.979Z,7.80
2022-10-14T04:45:02.491Z,20.53
2022-10-14T04:47:48.485Z,8.43
2022-10-14T04:50:20.124Z,8.20
2022-10-14T04:53:10.589Z,8.07
2022-10-14T04:55:51.671Z,11.47
2022-10-14T04:58:20.203Z,8.93
2022-10-14T05:00:49.542Z,6.30
2022-10-14T05:03:29.054Z,14.77
2022-10-14T05:05:58.171Z,11.60
2022-10-14T05:08:26.408Z,15.67
2022-10-14T05:10:58.515Z,14.63
2022-10-14T05:13:44.664Z,13.03
2022-10-14T05:16:13.241Z,14.67
2022-10-14T05:18:41.610Z,14.37
2022-10-14T05:21:11.902Z,13.10
2022-10-14T05:24:06.436Z,17.73
2022-10-14T05:26:38.633Z,16.03
2022-10-14T05:29:11.332Z,15.80
2022-10-14T05:31:40.551Z,14.37
2022-10-14T05:34:21.119Z,20.30
2022-10-14T05:36:49.377Z,15.67
2022-10-14T05:39:18.921Z,15.37
2022-10-14T05:41:48.386Z,13.77
2022-10-14T05:44:21.018Z,17.30
2022-10-14T05:46:50.161Z,23.17
2022-10-14T05:49:18.252Z,18.67
2022-10-14T05:51:46.797Z,14.53
2022-10-14T05:54:21.129Z,18.87
2022-10-14T05:56:53.694Z,13.73
2022-10-14T05:59:23.202Z,15.10
2022-10-14T06:01:51.247Z,15.80
2022-10-14T06:04:22.040Z,15.40
2022-10-14T06:06:50.114Z,10.90
2022-10-14T06:09:18.636Z,13.73
2022-10-14T06:11:46.901Z,12.90
2022-10-14T06:14:16.352Z,12.97
2022-10-14T06:16:44.601Z,11.90
2022-10-14T06:19:12.790Z,14.90
2022-10-14T06:21:40.922Z,11.47
2022-10-14T06:24:09.375Z,13.83
2022-10-14T06:26:37.484Z,10.87
2022-10-14T06:29:05.696Z,12.17
2022-10-14T06:31:35.291Z,9.23
2022-10-14T06:34:06.170Z,10.70
2022-10-14T06:36:37.107Z,12.07
2022-10-14T06:39:05.654Z,10.90
2022-10-14T06:41:33.821Z,14.40
2022-10-14T06:44:01.930Z,15.70
2022-10-14T06:46:31.309Z,24.50
2022-10-14T06:49:00.726Z,18.63
2022-10-14T06:51:29.400Z,15.13
2022-10-14T06:53:57.597Z,15.37
2022-10-14T06:56:25.720Z,18.40
2022-10-14T06:58:55.036Z,13.30
2022-10-14T07:01:23.450Z,18.53
2022-10-14T07:03:54.301Z,17.30
2022-10-14T07:06:26.098Z,16.07
2022-10-14T07:08:54.473Z,22.43
2022-10-14T07:11:22.531Z,23.90
2022-10-14T07:13:50.614Z,18.83
2022-10-14T07:16:18.652Z,23.53
2022-10-14T07:18:46.710Z,18.60
2022-10-14T07:21:14.831Z,20.70
2022-10-14T07:23:44.464Z,17.40
2022-10-14T07:26:15.562Z,16.47
2022-10-14T07:28:43.649Z,20.30
2022-10-14T07:31:13.077Z,18.67
2022-10-14T07:33:41.675Z,20.33
2022-10-14T07:36:13.055Z,18.50
2022-10-14T07:38:44.427Z,18.53
2022-10-14T07:41:18.288Z,13.10
2022-10-14T07:43:47.896Z,18.77
2022-10-14T07:46:17.904Z,21.50
2022-10-14T07:48:56.587Z,20.20
2022-10-14T07:51:26.113Z,16.47
2022-10-14T07:53:56.855Z,30.40
2022-10-14T07:56:25.873Z,12.93
2022-10-14T07:58:54.623Z,16.00
2022-10-14T08:01:24.466Z,19.33
2022-10-14T08:03:53.356Z,23.27
2022-10-14T08:06:22.106Z,17.37
2022-10-14T08:08:50.465Z,23.67
2022-10-14T08:11:22.750Z,18.27
2022-10-14T08:13:52.020Z,29.70
2022-10-14T08:16:23.065Z,21.10
2022-10-14T08:18:52.095Z,20.30
2022-10-14T08:21:21.480Z,18.63
2022-10-14T08:23:50.425Z,24.10
2022-10-14T08:26:28.102Z,20.47
2022-10-14T08:28:56.634Z,19.17
2022-10-14T08:31:25.148Z,20.13
2022-10-14T08:33:53.264Z,13.90
2022-10-14T08:36:22.077Z,14.00
2022-10-14T08:38:52.046Z,14.43
2022-10-14T08:41:57.141Z,14.60
2022-10-14T08:44:29.578Z,12.40
2022-10-14T08:47:01.148Z,13.50
2022-10-14T08:49:33.644Z,11.60
2022-10-14T08:52:05.941Z,13.77
2022-10-14T08:54:39.314Z,16.63
2022-10-14T08:57:17.060Z,14.07
2022-10-14T08:59:45.992Z,15.53
2022-10-14T09:02:35.902Z,12.47
2022-10-14T09:05:05.533Z,15.43
2022-10-14T09:07:35.929Z,14.97
2022-10-14T09:10:08.729Z,16.40
2022-10-14T09:12:42.768Z,14.17
2022-10-14T09:15:21.243Z,21.67
2022-10-14T09:17:53.909Z,20.77
2022-10-14T09:20:24.722Z,19.00
2022-10-14T09:23:01.707Z,18.60
2022-10-14T09:25:33.812Z,19.83
2022-10-14T09:28:03.816Z,20.13
2022-10-14T09:30:36.934Z,20.30
2022-10-14T09:33:06.389Z,18.93
2022-10-14T09:35:37.644Z,13.17
2022-10-14T09:38:07.240Z,17.10
2022-10-14T09:40:37.221Z,16.77
2022-10-14T09:43:16.635Z,18.60
2022-10-14T09:45:52.194Z,19.93
2022-10-14T09:48:27.500Z,17.27
2022-10-14T09:50:57.776Z,13.50
2022-10-14T09:53:31.063Z,78.20
2022-10-14T09:56:00.952Z,28.73
2022-10-14T09:58:34.501Z,20.17
2022-10-14T10:01:04.427Z,15.33
2022-10-14T10:03:35.585Z,17.00
2022-10-14T10:06:07.625Z,16.90
2022-10-14T10:08:38.025Z,16.20
2022-10-14T10:11:08.821Z,17.80
2022-10-14T10:13:41.636Z,16.67
2022-10-14T10:16:20.975Z,17.70
2022-10-14T10:18:49.686Z,17.27
2022-10-14T10:21:20.028Z,16.60
2022-10-14T10:23:54.225Z,16.93
2022-10-14T10:26:26.967Z,24.20
2022-10-14T10:28:58.415Z,20.60
2022-10-14T10:32:01.354Z,17.23
2022-10-14T10:34:56.419Z,17.87
2022-10-14T10:37:28.122Z,23.57
2022-10-14T10:40:10.105Z,21.40
2022-10-14T10:42:51.498Z,20.07
2022-10-14T10:45:36.551Z,18.80
2022-10-14T10:48:12.027Z,16.83
2022-10-14T10:50:48.538Z,15.73
2022-10-14T10:53:40.094Z,15.93
2022-10-14T10:56:15.210Z,16.23
2022-10-14T10:58:55.098Z,15.33
2022-10-14T11:01:37.088Z,15.63
2022-10-14T11:04:18.738Z,25.60
2022-10-14T11:07:14.369Z,17.40
2022-10-14T11:10:08.807Z,17.93
2022-10-14T11:12:47.256Z,19.10
2022-10-14T11:15:26.285Z,19.37
2022-10-14T11:18:03.457Z,14.00
2022-10-14T11:20:44.924Z,20.20
2022-10-14T11:23:38.098Z,15.30
2022-10-14T11:26:18.546Z,14.47
2022-10-14T11:28:52.245Z,14.20
2022-10-14T11:31:30.642Z,17.07
2022-10-14T11:34:13.246Z,15.43
2022-10-14T11:36:50.854Z,15.70
2022-10-14T11:39:35.592Z,10.47
2022-10-14T11:42:15.873Z,13.30
2022-10-14T11:44:44.844Z,20.60
2022-10-14T11:47:18.558Z,16.15
2022-10-14T11:49:55.768Z,20.53
2022-10-14T11:52:28.788Z,15.10
2022-10-14T11:55:01.163Z,17.40
2022-10-14T11:57:36.330Z,13.67
2022-10-14T12:00:24.907Z,18.30
2022-10-14T12:02:59.544Z,19.37
2022-10-14T12:05:37.496Z,11.20
2022-10-14T12:08:16.911Z,10.00
2022-10-14T12:10:49.075Z,18.37
2022-10-14T12:13:21.433Z,12.80
2022-10-14T12:15:52.870Z,11.87
2022-10-14T12:18:21.819Z,14.50
2022-10-14T12:20:57.614Z,12.77
2022-10-14T12:23:37.366Z,10.33
2022-10-14T12:26:13.931Z,10.17
2022-10-14T12:28:42.964Z,6.53
2022-10-14T12:31:22.342Z,5.97
2022-10-14T12:34:30.514Z,4.87
2022-10-14T12:37:00.204Z,8.70
2022-10-14T12:39:34.040Z,6.87
2022-10-14T12:42:05.127Z,4.80
2022-10-14T12:44:45.519Z,8.40
2022-10-14T12:47:21.016Z,19.53
2022-10-14T12:49:52.856Z,10.17
2022-10-14T12:52:31.130Z,7.57
2022-10-14T12:55:01.015Z,10.27
2022-10-14T12:57:31.774Z,5.83
2022-10-14T13:00:04.236Z,7.17
2022-10-14T13:02:51.567Z,6.50
2022-10-14T13:05:29.939Z,9.50
2022-10-14T13:08:14.838Z,7.17
2022-10-14T13:10:47.302Z,6.43
2022-10-14T13:13:52.357Z,5.73
2022-10-14T13:16:57.908Z,6.93
2022-10-14T13:19:45.633Z,7.90
2022-10-14T13:22:41.715Z,8.40
2022-10-14T13:25:20.815Z,6.73
2022-10-14T13:28:12.332Z,7.50
2022-10-14T13:30:51.897Z,5.20
2022-10-14T13:33:26.052Z,7.27
2022-10-14T13:36:03.871Z,6.50
2022-10-14T13:38:34.954Z,19.10
2022-10-14T13:41:06.910Z,6.83
2022-10-14T13:43:40.434Z,7.00
2022-10-14T13:46:13.336Z,7.23
2022-10-14T13:48:44.958Z,7.60
2022-10-14T13:51:42.912Z,6.50
2022-10-14T13:54:17.735Z,6.90
2022-10-14T13:57:31.555Z,6.70
2022-10-14T14:00:38.087Z,7.83
2022-10-14T14:02:43.354Z,9.10
2022-10-14T14:05:16.750Z,8.80
2022-10-14T14:10:39.245Z,5.10
2022-10-14T14:13:14.240Z,5.90
2022-10-14T14:15:43.457Z,5.53
2022-10-14T14:18:38.193Z,13.33
2022-10-14T14:21:18.316Z,5.87
2022-10-14T14:23:51.525Z,4.13
2022-10-14T14:26:20.793Z,7.87
2022-10-14T14:28:50.656Z,7.70
2022-10-14T14:31:22.879Z,7.53
2022-10-14T14:33:51.065Z,4.33
2022-10-14T14:36:27.508Z,10.13
2022-10-14T14:38:58.690Z,5.90
2022-10-14T14:41:29.224Z,5.90
2022-10-14T14:46:52.453Z,14.17
2022-10-14T14:49:30.926Z,9.70
2022-10-14T14:52:01.207Z,3.90
2022-10-14T14:54:29.870Z,6.53
2022-10-14T14:57:04.216Z,5.10
2022-10-14T14:59:37.192Z,5.63
2022-10-14T15:02:13.314Z,4.13
2022-10-14T15:04:42.082Z,4.80
2022-10-14T15:07:21.125Z,5.77
2022-10-14T15:09:52.616Z,8.23
2022-10-14T15:12:25.434Z,6.57
2022-10-14T15:14:58.365Z,7.07
2022-10-14T15:17:30.228Z,8.63
2022-10-14T15:20:01.301Z,5.53
2022-10-14T15:22:34.353Z,6.93
2022-10-14T15:25:08.361Z,8.30
2022-10-14T15:27:46.674Z,6.53
2022-10-14T15:30:51.975Z,11.90
2022-10-14T15:33:22.207Z,7.40
2022-10-14T15:36:24.672Z,5.17
2022-10-14T15:38:58.336Z,6.40
2022-10-14T15:41:28.663Z,8.30
2022-10-14T15:43:56.927Z,7.20
2022-10-14T15:46:43.750Z,8.73
2022-10-14T15:49:16.331Z,7.20
2022-10-14T15:51:44.415Z,8.97
2022-10-14T15:54:15.570Z,8.60
2022-10-14T15:56:48.311Z,10.33
2022-10-14T15:59:17.346Z,9.40
2022-10-14T16:01:47.345Z,11.03
2022-10-14T16:04:19.745Z,7.27
2022-10-14T16:06:48.009Z,13.20
2022-10-14T16:09:36.653Z,8.83
2022-10-14T16:12:07.068Z,10.43
2022-10-14T16:14:35.404Z,9.23
2022-10-14T16:17:06.018Z,9.13
2022-10-14T16:19:35.233Z,11.40
2022-10-14T16:22:06.649Z,8.97
2022-10-14T16:24:38.046Z,9.70
2022-10-14T16:27:06.913Z,8.53
2022-10-14T16:29:35.511Z,9.13
2022-10-14T16:32:07.877Z,9.67
2022-10-14T16:34:35.922Z,10.90
2022-10-14T16:37:04.437Z,12.30
2022-10-14T16:39:32.543Z,9.90
2022-10-14T16:42:00.888Z,9.87
2022-10-14T16:44:29.259Z,12.47
2022-10-14T16:47:17.357Z,7.80
2022-10-14T16:49:49.098Z,8.53
2022-10-14T16:52:17.729Z,8.90
2022-10-14T16:54:45.823Z,10.00
2022-10-14T16:57:13.959Z,10.37
2022-10-14T16:59:42.234Z,10.60
2022-10-14T17:02:15.527Z,9.97
2022-10-14T17:04:46.336Z,10.97
2022-10-14T17:07:17.447Z,13.17
2022-10-14T17:09:45.708Z,11.40
2022-10-14T17:12:14.468Z,9.67
2022-10-14T17:14:42.946Z,10.10
2022-10-14T17:17:12.430Z,10.53
2022-10-14T17:19:42.870Z,13.33
2022-10-14T17:22:11.731Z,10.30
2022-10-14T17:24:41.479Z,11.13
2022-10-14T17:27:11.069Z,10.07
2022-10-14T17:29:39.956Z,7.00
2022-10-14T17:32:11.439Z,8.80
2022-10-14T17:34:39.683Z,12.57
2022-10-14T17:39:42.626Z,10.43
2022-10-14T17:42:10.797Z,8.10
2022-10-14T17:44:43.415Z,12.17
2022-10-14T17:47:12.158Z,12.60
2022-10-14T17:49:40.458Z,6.93
2022-10-14T17:52:08.601Z,6.30
2022-10-14T17:54:36.816Z,10.50
2022-10-14T17:57:06.544Z,9.43
2022-10-14T17:59:34.879Z,10.13
2022-10-14T18:02:03.809Z,7.43
2022-10-14T18:04:33.342Z,6.77
2022-10-14T18:07:01.586Z,9.90
2022-10-14T18:09:29.866Z,7.50
2022-10-14T18:12:08.824Z,8.20
2022-10-14T18:14:40.447Z,5.70
2022-10-14T18:17:10.782Z,6.50
2022-10-14T18:19:39.383Z,6.00
2022-10-14T18:22:07.679Z,6.97
2022-10-14T18:24:38.303Z,7.03
2022-10-14T18:27:07.460Z,7.77
2022-10-14T18:29:35.846Z,7.10
2022-10-14T18:32:06.167Z,7.40
2022-10-14T18:34:34.593Z,7.00
2022-10-14T18:37:02.735Z,7.03
2022-10-14T18:39:30.888Z,7.13
2022-10-14T18:41:59.064Z,8.60
2022-10-14T18:44:27.367Z,5.80
2022-10-14T18:46:56.770Z,4.27
2022-10-14T18:49:26.322Z,6.73
2022-10-14T18:51:55.251Z,24.20
2022-10-14T18:54:24.949Z,8.37
2022-10-14T18:56:54.807Z,6.40
2022-10-14T18:59:24.483Z,7.90
2022-10-14T19:01:53.516Z,8.53
2022-10-14T19:04:24.839Z,6.43
2022-10-14T19:06:54.950Z,4.90
2022-10-14T19:09:29.048Z,7.40
2022-10-14T19:11:58.971Z,7.70
2022-10-14T19:14:28.642Z,5.10
2022-10-14T19:16:56.993Z,7.20
2022-10-14T19:19:25.722Z,7.97
2022-10-14T19:21:56.352Z,7.57
2022-10-14T19:24:24.790Z,4.53
2022-10-14T19:26:54.158Z,9.97
2022-10-14T19:29:22.669Z,6.47
2022-10-14T19:31:51.903Z,6.47
2022-10-14T19:34:26.752Z,6.43
2022-10-14T19:36:56.809Z,6.57
2022-10-14T19:39:25.055Z,5.80
2022-10-14T19:41:53.492Z,6.37
2022-10-14T19:44:21.808Z,5.40
2022-10-14T19:46:50.073Z,5.10
2022-10-14T19:49:18.770Z,4.57
2022-10-14T19:51:46.940Z,5.80
2022-10-14T19:54:16.567Z,4.60
2022-10-14T19:56:44.769Z,5.57
2022-10-14T19:59:13.988Z,5.30
2022-10-14T20:01:42.415Z,31.20
2022-10-14T20:04:10.825Z,17.97
2022-10-14T20:06:40.099Z,5.80
2022-10-14T20:09:09.328Z,4.10
2022-10-14T20:11:38.723Z,5.50
2022-10-14T20:14:07.209Z,5.53
2022-10-14T20:16:35.537Z,6.03
2022-10-14T20:19:03.662Z,4.57
2022-10-14T20:21:32.157Z,4.80
2022-10-14T20:24:00.494Z,3.80
2022-10-14T20:26:28.618Z,5.30
2022-10-14T20:29:18.411Z,6.50
2022-10-14T20:31:46.683Z,3.77
2022-10-14T20:34:26.069Z,3.50
2022-10-14T20:36:54.218Z,3.13
2022-10-14T20:39:23.020Z,4.40
2022-10-14T20:41:51.613Z,2.73
2022-10-14T20:44:23.849Z,2.97
2022-10-14T20:46:52.571Z,5.23
2022-10-14T20:49:20.631Z,2.40
2022-10-14T20:51:48.690Z,4.00
2022-10-14T20:54:16.744Z,2.73
2022-10-14T20:56:44.804Z,3.13
2022-10-14T20:59:14.415Z,2.03
2022-10-14T21:01:43.858Z,3.47
2022-10-14T21:04:11.917Z,1.80
2022-10-14T21:06:41.087Z,2.00
2022-10-14T21:09:10.652Z,1.90
2022-10-14T21:11:39.364Z,2.03
2022-10-14T21:14:07.691Z,4.43
2022-10-14T21:16:37.623Z,2.00
2022-10-14T21:19:08.350Z,1.83
2022-10-14T21:21:39.188Z,3.63
2022-10-14T21:24:08.848Z,12.67
2022-10-14T21:26:36.986Z,5.33
2022-10-14T21:29:05.348Z,2.90
2022-10-14T21:31:33.399Z,2.00
2022-10-14T21:34:06.068Z,4.80
2022-10-14T21:36:36.603Z,5.17
2022-10-14T21:39:07.325Z,2.70
2022-10-14T21:41:35.903Z,2.37
2022-10-14T21:44:04.835Z,4.63
2022-10-14T21:46:34.009Z,2.63
2022-10-14T21:49:02.188Z,1.37
2022-10-14T21:51:31.363Z,1.83
2022-10-14T21:54:01.026Z,1.63
2022-10-14T21:56:29.795Z,3.50
2022-10-14T21:58:58.329Z,1.60
2022-10-14T22:01:28.699Z,3.53
2022-10-14T22:03:59.149Z,2.80
2022-10-14T22:06:28.147Z,1.70
2022-10-14T22:08:58.231Z,1.50
2022-10-14T22:11:30.358Z,1.30
2022-10-14T22:14:00.532Z,4.33
2022-10-14T22:16:29.907Z,3.67
2022-10-14T22:19:00.478Z,1.70
2022-10-14T22:21:30.316Z,1.97
2022-10-14T22:23:59.107Z,2.17
2022-10-14T22:26:30.254Z,1.50
2022-10-14T22:29:00.301Z,3.77
2022-10-14T22:31:29.691Z,2.17
2022-10-14T22:33:59.300Z,2.13
2022-10-14T22:36:29.496Z,1.37
2022-10-14T22:38:59.049Z,2.50
2022-10-14T22:41:34.948Z,1.30
2022-10-14T22:44:04.701Z,1.63
2022-10-14T22:46:34.800Z,0.97
2022-10-14T22:49:03.112Z,0.93
2022-10-14T22:51:33.070Z,0.93
2022-10-14T22:54:01.297Z,1.03
2022-10-14T22:56:32.577Z,1.20
2022-10-14T22:59:02.302Z,2.27
2022-10-14T23:01:31.060Z,1.00
2022-10-14T23:04:00.499Z,0.80
2022-10-14T23:06:29.783Z,0.80
2022-10-14T23:08:59.986Z,2.67
2022-10-14T23:11:32.008Z,4.43
2022-10-14T23:14:03.009Z,0.70
2022-10-14T23:16:36.173Z,1.03
2022-10-14T23:19:04.874Z,0.90
2022-10-14T23:21:35.262Z,1.03
2022-10-14T23:24:07.177Z,1.97
2022-10-14T23:26:36.868Z,1.10
2022-10-14T23:29:07.206Z,1.03
2022-10-14T23:31:36.919Z,1.07
2022-10-14T23:34:07.037Z,1.20
2022-10-14T23:36:35.403Z,1.33
2022-10-14T23:39:03.919Z,1.20
2022-10-14T23:41:32.132Z,0.90
2022-10-14T23:44:01.639Z,3.43
2022-10-14T23:46:29.901Z,1.50
2022-10-14T23:49:07.575Z,4.43
2022-10-14T23:51:46.474Z,1.63
2022-10-14T23:54:14.737Z,1.87
2022-10-14T23:56:42.998Z,1.30
2022-10-14T23:59:12.935Z,1.60
